sensor_id;sensor_type;location;lat;lon;timestamp;pressure;altitude;pressure_sealevel;temperature;humidity
36502;BME280;25393;46.108;3.390;2022-12-18T00:01:35;98522.78;;;-3.16;100.00
36502;BME280;25393;46.108;3.390;2022-12-18T00:04:07;98530.53;;;-3.15;100.00
36502;BME280;25393;46.108;3.390;2022-12-18T00:06:35;98527.72;;;-3.10;100.00
36502;BME280;25393;46.108;3.390;2022-12-18T00:09:02;98524.19;;;-3.09;100.00
36502;BME280;25393;46.108;3.390;2022-12-18T00:11:30;98528.84;;;-2.98;100.00
36502;BME280;25393;46.108;3.390;2022-12-18T00:13:59;98522.72;;;-2.96;100.00
36502;BME280;25393;46.108;3.390;2022-12-18T00:16:30;98519.69;;;-3.06;100.00
36502;BME280;25393;46.108;3.390;2022-12-18T00:19:04;98524.69;;;-3.20;100.00
36502;BME280;25393;46.108;3.390;2022-12-18T00:21:33;98528.78;;;-3.14;100.00
36502;BME280;25393;46.108;3.390;2022-12-18T00:24:01;98518.97;;;-3.26;100.00
36502;BME280;25393;46.108;3.390;2022-12-18T00:26:35;98525.84;;;-3.25;100.00
36502;BME280;25393;46.108;3.390;2022-12-18T00:29:07;98522.00;;;-3.35;100.00
36502;BME280;25393;46.108;3.390;2022-12-18T00:31:34;98521.78;;;-3.31;100.00
36502;BME280;25393;46.108;3.390;2022-12-18T00:34:05;98526.41;;;-3.37;100.00
36502;BME280;25393;46.108;3.390;2022-12-18T00:36:34;98513.94;;;-3.29;100.00
36502;BME280;25393;46.108;3.390;2022-12-18T00:39:04;98520.28;;;-3.18;100.00
36502;BME280;25393;46.108;3.390;2022-12-18T00:41:32;98517.59;;;-3.16;100.00
36502;BME280;25393;46.108;3.390;2022-12-18T00:44:18;98503.59;;;-3.12;100.00
36502;BME280;25393;46.108;3.390;2022-12-18T00:46:46;98505.56;;;-3.17;100.00
36502;BME280;25393;46.108;3.390;2022-12-18T00:49:14;98505.59;;;-3.55;100.00
36502;BME280;25393;46.108;3.390;2022-12-18T00:51:41;98511.84;;;-3.59;100.00
36502;BME280;25393;46.108;3.390;2022-12-18T00:54:08;98508.13;;;-3.72;100.00
36502;BME280;25393;46.108;3.390;2022-12-18T00:56:36;98510.22;;;-3.61;100.00
36502;BME280;25393;46.108;3.390;2022-12-18T00:59:14;98510.16;;;-3.60;100.00
36502;BME280;25393;46.108;3.390;2022-12-18T01:01:41;98517.25;;;-3.63;100.00
36502;BME280;25393;46.108;3.390;2022-12-18T01:04:07;98520.56;;;-3.80;100.00
36502;BME280;25393;46.108;3.390;2022-12-18T01:06:34;98527.44;;;-3.79;100.00
36502;BME280;25393;46.108;3.390;2022-12-18T01:09:03;98520.00;;;-3.86;100.00
36502;BME280;25393;46.108;3.390;2022-12-18T01:11:33;98514.28;;;-3.93;100.00
36502;BME280;25393;46.108;3.390;2022-12-18T01:13:59;98522.38;;;-4.00;100.00
36502;BME280;25393;46.108;3.390;2022-12-18T01:16:28;98522.19;;;-3.96;100.00
36502;BME280;25393;46.108;3.390;2022-12-18T01:18:55;98528.97;;;-3.93;100.00
36502;BME280;25393;46.108;3.390;2022-12-18T01:21:22;98530.59;;;-3.91;100.00
36502;BME280;25393;46.108;3.390;2022-12-18T01:23:53;98536.13;;;-3.98;100.00
36502;BME280;25393;46.108;3.390;2022-12-18T01:26:21;98534.16;;;-3.93;100.00
36502;BME280;25393;46.108;3.390;2022-12-18T01:28:48;98542.13;;;-3.98;100.00
36502;BME280;25393;46.108;3.390;2022-12-18T01:31:20;98552.75;;;-4.04;100.00
36502;BME280;25393;46.108;3.390;2022-12-18T01:33:47;98545.56;;;-4.18;100.00
36502;BME280;25393;46.108;3.390;2022-12-18T01:36:18;98552.16;;;-4.11;100.00
36502;BME280;25393;46.108;3.390;2022-12-18T01:38:46;98552.03;;;-4.08;100.00
36502;BME280;25393;46.108;3.390;2022-12-18T01:41:19;98556.00;;;-3.99;100.00
36502;BME280;25393;46.108;3.390;2022-12-18T01:43:50;98551.91;;;-4.05;100.00
36502;BME280;25393;46.108;3.390;2022-12-18T01:46:19;98542.38;;;-4.04;100.00
36502;BME280;25393;46.108;3.390;2022-12-18T01:48:49;98564.13;;;-4.08;100.00
36502;BME280;25393;46.108;3.390;2022-12-18T01:51:17;98569.25;;;-4.07;100.00
36502;BME280;25393;46.108;3.390;2022-12-18T01:53:44;98564.66;;;-4.00;100.00
36502;BME280;25393;46.108;3.390;2022-12-18T01:56:14;98576.56;;;-3.96;100.00
36502;BME280;25393;46.108;3.390;2022-12-18T01:59:00;98583.69;;;-4.01;100.00
36502;BME280;25393;46.108;3.390;2022-12-18T02:01:34;98582.47;;;-3.92;100.00
36502;BME280;25393;46.108;3.390;2022-12-18T02:04:23;98596.00;;;-4.06;100.00
36502;BME280;25393;46.108;3.390;2022-12-18T02:06:56;98607.56;;;-4.15;100.00
36502;BME280;25393;46.108;3.390;2022-12-18T02:09:36;98595.69;;;-4.19;100.00
36502;BME280;25393;46.108;3.390;2022-12-18T02:12:13;98599.94;;;-4.18;100.00
36502;BME280;25393;46.108;3.390;2022-12-18T02:17:17;98597.81;;;-4.28;100.00
36502;BME280;25393;46.108;3.390;2022-12-18T02:22:29;98607.00;;;-4.21;100.00
36502;BME280;25393;46.108;3.390;2022-12-18T02:25:28;98604.19;;;-4.15;100.00
36502;BME280;25393;46.108;3.390;2022-12-18T02:28:02;98588.31;;;-4.28;100.00
36502;BME280;25393;46.108;3.390;2022-12-18T02:30:32;98594.97;;;-4.22;100.00
36502;BME280;25393;46.108;3.390;2022-12-18T02:33:04;98602.47;;;-4.16;100.00
36502;BME280;25393;46.108;3.390;2022-12-18T02:35:34;98596.31;;;-4.14;100.00
36502;BME280;25393;46.108;3.390;2022-12-18T02:38:03;98595.16;;;-4.07;100.00
36502;BME280;25393;46.108;3.390;2022-12-18T02:40:34;98608.16;;;-4.08;100.00
36502;BME280;25393;46.108;3.390;2022-12-18T02:43:12;98604.81;;;-4.30;100.00
36502;BME280;25393;46.108;3.390;2022-12-18T02:45:55;98603.50;;;-4.20;100.00
36502;BME280;25393;46.108;3.390;2022-12-18T02:48:34;98610.16;;;-4.15;100.00
36502;BME280;25393;46.108;3.390;2022-12-18T02:51:15;98598.59;;;-4.06;100.00
36502;BME280;25393;46.108;3.390;2022-12-18T02:53:49;98607.44;;;-4.12;100.00
36502;BME280;25393;46.108;3.390;2022-12-18T02:56:20;98610.69;;;-4.27;100.00
36502;BME280;25393;46.108;3.390;2022-12-18T02:58:55;98604.66;;;-4.47;100.00
36502;BME280;25393;46.108;3.390;2022-12-18T03:04:05;98606.03;;;-4.39;100.00
36502;BME280;25393;46.108;3.390;2022-12-18T03:06:40;98607.44;;;-4.12;100.00
36502;BME280;25393;46.108;3.390;2022-12-18T03:09:10;98576.34;;;-4.30;100.00
36502;BME280;25393;46.108;3.390;2022-12-18T03:11:41;98595.34;;;-4.31;100.00
36502;BME280;25393;46.108;3.390;2022-12-18T03:14:31;98601.63;;;-4.37;100.00
36502;BME280;25393;46.108;3.390;2022-12-18T03:17:03;98588.44;;;-4.31;100.00
36502;BME280;25393;46.108;3.390;2022-12-18T03:19:32;98585.97;;;-4.34;100.00
36502;BME280;25393;46.108;3.390;2022-12-18T03:22:02;98594.31;;;-4.27;100.00
36502;BME280;25393;46.108;3.390;2022-12-18T03:24:31;98586.56;;;-4.27;100.00
36502;BME280;25393;46.108;3.390;2022-12-18T03:27:06;98586.25;;;-4.40;100.00
36502;BME280;25393;46.108;3.390;2022-12-18T03:29:49;98580.41;;;-4.45;100.00
36502;BME280;25393;46.108;3.390;2022-12-18T03:32:29;98581.22;;;-4.65;100.00
36502;BME280;25393;46.108;3.390;2022-12-18T03:35:03;98572.94;;;-4.53;100.00
36502;BME280;25393;46.108;3.390;2022-12-18T03:37:32;98583.69;;;-4.62;100.00
36502;BME280;25393;46.108;3.390;2022-12-18T03:39:59;98562.72;;;-4.76;100.00
36502;BME280;25393;46.108;3.390;2022-12-18T03:45:09;98576.38;;;-4.94;100.00
36502;BME280;25393;46.108;3.390;2022-12-18T03:48:19;98578.78;;;-4.89;100.00
36502;BME280;25393;46.108;3.390;2022-12-18T03:53:55;98580.09;;;-5.01;100.00
36502;BME280;25393;46.108;3.390;2022-12-18T03:56:26;98573.78;;;-5.16;100.00
36502;BME280;25393;46.108;3.390;2022-12-18T03:58:59;98581.91;;;-5.25;100.00
36502;BME280;25393;46.108;3.390;2022-12-18T04:01:34;98573.16;;;-5.22;100.00
36502;BME280;25393;46.108;3.390;2022-12-18T04:04:04;98581.25;;;-5.08;100.00
36502;BME280;25393;46.108;3.390;2022-12-18T04:06:34;98592.47;;;-5.09;100.00
36502;BME280;25393;46.108;3.390;2022-12-18T04:09:05;98576.97;;;-4.87;100.00
36502;BME280;25393;46.108;3.390;2022-12-18T04:11:34;98580.09;;;-4.79;100.00
36502;BME280;25393;46.108;3.390;2022-12-18T04:14:04;98573.69;;;-4.92;100.00
36502;BME280;25393;46.108;3.390;2022-12-18T04:16:32;98573.81;;;-4.95;100.00
36502;BME280;25393;46.108;3.390;2022-12-18T04:18:59;98564.34;;;-4.95;100.00
36502;BME280;25393;46.108;3.390;2022-12-18T04:21:27;98564.28;;;-4.93;99.37
36502;BME280;25393;46.108;3.390;2022-12-18T04:23:54;98570.06;;;-4.87;97.61
36502;BME280;25393;46.108;3.390;2022-12-18T04:26:20;98574.81;;;-4.98;97.41
36502;BME280;25393;46.108;3.390;2022-12-18T04:28:47;98584.38;;;-5.00;96.72
36502;BME280;25393;46.108;3.390;2022-12-18T04:31:13;98575.81;;;-5.02;95.21
36502;BME280;25393;46.108;3.390;2022-12-18T04:33:40;98562.47;;;-5.13;95.17
36502;BME280;25393;46.108;3.390;2022-12-18T04:36:07;98568.69;;;-5.17;95.79
36502;BME280;25393;46.108;3.390;2022-12-18T04:38:34;98588.44;;;-5.16;95.29
36502;BME280;25393;46.108;3.390;2022-12-18T04:41:03;98596.59;;;-5.27;94.20
36502;BME280;25393;46.108;3.390;2022-12-18T04:43:33;98599.31;;;-5.30;92.59
36502;BME280;25393;46.108;3.390;2022-12-18T04:46:05;98599.25;;;-5.28;92.18
36502;BME280;25393;46.108;3.390;2022-12-18T04:48:37;98609.75;;;-5.33;92.43
36502;BME280;25393;46.108;3.390;2022-12-18T04:51:04;98599.47;;;-5.34;93.21
36502;BME280;25393;46.108;3.390;2022-12-18T04:53:31;98599.25;;;-5.28;93.87
36502;BME280;25393;46.108;3.390;2022-12-18T04:56:13;98600.50;;;-5.17;93.10
36502;BME280;25393;46.108;3.390;2022-12-18T04:58:42;98602.28;;;-5.17;92.08
36502;BME280;25393;46.108;3.390;2022-12-18T05:01:09;98606.28;;;-5.10;91.91
36502;BME280;25393;46.108;3.390;2022-12-18T05:03:36;98607.22;;;-5.11;92.02
36502;BME280;25393;46.108;3.390;2022-12-18T05:06:04;98602.56;;;-5.25;93.09
36502;BME280;25393;46.108;3.390;2022-12-18T05:08:35;98611.63;;;-5.36;94.44
36502;BME280;25393;46.108;3.390;2022-12-18T05:11:07;98605.00;;;-5.43;94.38
36502;BME280;25393;46.108;3.390;2022-12-18T05:13:36;98615.44;;;-5.46;93.55
36502;BME280;25393;46.108;3.390;2022-12-18T05:16:05;98603.66;;;-5.53;94.22
36502;BME280;25393;46.108;3.390;2022-12-18T05:18:32;98618.69;;;-5.41;95.22
36502;BME280;25393;46.108;3.390;2022-12-18T05:20:59;98604.31;;;-5.25;94.26
36502;BME280;25393;46.108;3.390;2022-12-18T05:23:34;98610.97;;;-5.20;91.68
36502;BME280;25393;46.108;3.390;2022-12-18T05:26:04;98616.94;;;-5.18;92.09
36502;BME280;25393;46.108;3.390;2022-12-18T05:28:35;98623.63;;;-5.12;92.52
36502;BME280;25393;46.108;3.390;2022-12-18T05:31:03;98607.50;;;-5.19;92.01
36502;BME280;25393;46.108;3.390;2022-12-18T05:33:34;98615.22;;;-5.17;92.40
36502;BME280;25393;46.108;3.390;2022-12-18T05:36:03;98628.94;;;-5.38;93.81
36502;BME280;25393;46.108;3.390;2022-12-18T05:38:36;98624.91;;;-5.45;93.99
36502;BME280;25393;46.108;3.390;2022-12-18T05:41:04;98630.88;;;-5.45;94.54
36502;BME280;25393;46.108;3.390;2022-12-18T05:43:35;98625.56;;;-5.40;94.69
36502;BME280;25393;46.108;3.390;2022-12-18T05:46:21;98639.88;;;-5.32;94.14
36502;BME280;25393;46.108;3.390;2022-12-18T05:48:47;98640.00;;;-5.35;94.94
36502;BME280;25393;46.108;3.390;2022-12-18T05:51:19;98650.84;;;-5.25;93.74
36502;BME280;25393;46.108;3.390;2022-12-18T05:53:47;98653.66;;;-5.31;93.43
36502;BME280;25393;46.108;3.390;2022-12-18T05:56:19;98658.25;;;-5.39;93.57
36502;BME280;25393;46.108;3.390;2022-12-18T05:58:46;98664.53;;;-5.46;95.20
36502;BME280;25393;46.108;3.390;2022-12-18T06:01:15;98670.47;;;-5.44;95.50
36502;BME280;25393;46.108;3.390;2022-12-18T06:03:43;98679.03;;;-5.42;97.85
36502;BME280;25393;46.108;3.390;2022-12-18T06:06:19;98673.44;;;-5.55;100.00
36502;BME280;25393;46.108;3.390;2022-12-18T06:08:46;98682.28;;;-5.61;100.00
36502;BME280;25393;46.108;3.390;2022-12-18T06:11:17;98694.94;;;-5.53;100.00
36502;BME280;25393;46.108;3.390;2022-12-18T06:13:45;98706.00;;;-5.49;100.00
36502;BME280;25393;46.108;3.390;2022-12-18T06:16:12;98702.56;;;-5.50;100.00
36502;BME280;25393;46.108;3.390;2022-12-18T06:18:38;98692.84;;;-5.67;100.00
36502;BME280;25393;46.108;3.390;2022-12-18T06:21:05;98704.19;;;-5.47;100.00
36502;BME280;25393;46.108;3.390;2022-12-18T06:23:32;98690.84;;;-5.35;100.00
36502;BME280;25393;46.108;3.390;2022-12-18T06:25:58;98686.00;;;-5.21;100.00
36502;BME280;25393;46.108;3.390;2022-12-18T06:28:28;98684.44;;;-5.25;100.00
36502;BME280;25393;46.108;3.390;2022-12-18T06:30:55;98698.81;;;-5.18;100.00
36502;BME280;25393;46.108;3.390;2022-12-18T06:33:21;98707.75;;;-5.27;100.00
36502;BME280;25393;46.108;3.390;2022-12-18T06:35:48;98700.09;;;-5.30;100.00
36502;BME280;25393;46.108;3.390;2022-12-18T06:38:14;98690.50;;;-5.26;100.00
36502;BME280;25393;46.108;3.390;2022-12-18T06:40:41;98682.06;;;-5.08;100.00
36502;BME280;25393;46.108;3.390;2022-12-18T06:43:07;98690.19;;;-4.95;100.00
36502;BME280;25393;46.108;3.390;2022-12-18T06:45:34;98693.69;;;-4.96;100.00
36502;BME280;25393;46.108;3.390;2022-12-18T06:48:03;98689.91;;;-4.88;100.00
36502;BME280;25393;46.108;3.390;2022-12-18T06:50:33;98688.03;;;-4.84;100.00
36502;BME280;25393;46.108;3.390;2022-12-18T06:52:59;98685.88;;;-4.95;100.00
36502;BME280;25393;46.108;3.390;2022-12-18T06:55:29;98690.00;;;-4.89;100.00
36502;BME280;25393;46.108;3.390;2022-12-18T06:57:57;98692.38;;;-4.85;100.00
36502;BME280;25393;46.108;3.390;2022-12-18T07:00:24;98688.84;;;-4.82;100.00
36502;BME280;25393;46.108;3.390;2022-12-18T07:02:50;98696.41;;;-4.78;100.00
36502;BME280;25393;46.108;3.390;2022-12-18T07:05:17;98691.25;;;-4.78;100.00
36502;BME280;25393;46.108;3.390;2022-12-18T07:07:43;98695.56;;;-4.78;100.00
36502;BME280;25393;46.108;3.390;2022-12-18T07:10:10;98693.66;;;-4.73;100.00
36502;BME280;25393;46.108;3.390;2022-12-18T07:12:36;98705.47;;;-4.66;100.00
36502;BME280;25393;46.108;3.390;2022-12-18T07:15:03;98706.19;;;-4.63;100.00
36502;BME280;25393;46.108;3.390;2022-12-18T07:17:33;98682.78;;;-4.60;100.00
36502;BME280;25393;46.108;3.390;2022-12-18T07:19:59;98690.34;;;-4.33;98.75
36502;BME280;25393;46.108;3.390;2022-12-18T07:22:28;98674.13;;;-4.37;98.36
36502;BME280;25393;46.108;3.390;2022-12-18T07:24:54;98691.38;;;-4.16;98.76
36502;BME280;25393;46.108;3.390;2022-12-18T07:27:22;98682.50;;;-4.10;98.08
36502;BME280;25393;46.108;3.390;2022-12-18T07:29:48;98680.16;;;-4.16;97.95
36502;BME280;25393;46.108;3.390;2022-12-18T07:32:15;98684.66;;;-4.21;99.63
36502;BME280;25393;46.108;3.390;2022-12-18T07:34:42;98664.94;;;-4.24;99.60
36502;BME280;25393;46.108;3.390;2022-12-18T07:37:08;98670.69;;;-4.17;100.00
36502;BME280;25393;46.108;3.390;2022-12-18T07:39:35;98685.97;;;-4.11;100.00
36502;BME280;25393;46.108;3.390;2022-12-18T07:42:04;98677.50;;;-4.15;100.00
36502;BME280;25393;46.108;3.390;2022-12-18T07:44:50;98682.09;;;-3.61;100.00
36502;BME280;25393;46.108;3.390;2022-12-18T07:47:16;98663.06;;;-2.12;98.09
36502;BME280;25393;46.108;3.390;2022-12-18T07:49:43;98655.00;;;-0.29;86.24
36502;BME280;25393;46.108;3.390;2022-12-18T07:52:09;98637.56;;;1.16;72.84
36502;BME280;25393;46.108;3.390;2022-12-18T07:54:38;98639.94;;;2.26;67.37
36502;BME280;25393;46.108;3.390;2022-12-18T07:57:05;98642.22;;;3.19;60.99
36502;BME280;25393;46.108;3.390;2022-12-18T07:59:52;98642.47;;;4.11;55.86
36502;BME280;25393;46.108;3.390;2022-12-18T08:02:19;98640.31;;;4.73;54.46
36502;BME280;25393;46.108;3.390;2022-12-18T08:04:47;98640.59;;;4.81;52.80
36502;BME280;25393;46.108;3.390;2022-12-18T08:07:13;98635.63;;;4.54;53.26
36502;BME280;25393;46.108;3.390;2022-12-18T08:09:40;98638.72;;;4.37;54.28
36502;BME280;25393;46.108;3.390;2022-12-18T08:12:06;98636.94;;;4.03;54.76
36502;BME280;25393;46.108;3.390;2022-12-18T08:14:33;98634.28;;;3.68;56.54
36502;BME280;25393;46.108;3.390;2022-12-18T08:16:59;98645.31;;;3.61;56.82
36502;BME280;25393;46.108;3.390;2022-12-18T08:19:28;98646.25;;;3.36;59.46
36502;BME280;25393;46.108;3.390;2022-12-18T08:21:55;98663.19;;;2.94;59.04
36502;BME280;25393;46.108;3.390;2022-12-18T08:24:21;98661.72;;;2.65;59.67
36502;BME280;25393;46.108;3.390;2022-12-18T08:26:48;98654.81;;;2.38;61.56
36502;BME280;25393;46.108;3.390;2022-12-18T08:29:34;98668.66;;;2.01;63.05
36502;BME280;25393;46.108;3.390;2022-12-18T08:32:04;98665.78;;;1.79;65.26
36502;BME280;25393;46.108;3.390;2022-12-18T08:34:34;98674.19;;;1.70;66.61
36502;BME280;25393;46.108;3.390;2022-12-18T08:37:03;98673.72;;;1.36;67.54
36502;BME280;25393;46.108;3.390;2022-12-18T08:39:34;98686.19;;;0.76;68.05
36502;BME280;25393;46.108;3.390;2022-12-18T08:42:03;98670.47;;;0.04;71.63
36502;BME280;25393;46.108;3.390;2022-12-18T08:44:48;98688.09;;;0.15;73.60
36502;BME280;25393;46.108;3.390;2022-12-18T08:47:15;98685.63;;;0.27;75.74
36502;BME280;25393;46.108;3.390;2022-12-18T08:49:41;98694.44;;;0.25;75.05
36502;BME280;25393;46.108;3.390;2022-12-18T08:52:08;98694.78;;;0.05;75.02
36502;BME280;25393;46.108;3.390;2022-12-18T08:54:37;98685.34;;;0.32;75.00
36502;BME280;25393;46.108;3.390;2022-12-18T08:57:04;98692.16;;;0.34;74.63
36502;BME280;25393;46.108;3.390;2022-12-18T08:59:33;98702.59;;;0.05;75.49
36502;BME280;25393;46.108;3.390;2022-12-18T09:02:03;98704.81;;;0.26;75.40
36502;BME280;25393;46.108;3.390;2022-12-18T09:04:30;98694.25;;;0.14;75.77
36502;BME280;25393;46.108;3.390;2022-12-18T09:06:58;98705.78;;;0.10;76.48
36502;BME280;25393;46.108;3.390;2022-12-18T09:09:25;98705.91;;;-0.08;77.86
36502;BME280;25393;46.108;3.390;2022-12-18T09:11:51;98711.19;;;0.07;78.86
36502;BME280;25393;46.108;3.390;2022-12-18T09:14:18;98711.66;;;0.13;79.24
36502;BME280;25393;46.108;3.390;2022-12-18T09:16:44;98715.63;;;0.05;78.13
36502;BME280;25393;46.108;3.390;2022-12-18T09:19:11;98713.13;;;0.03;79.69
36502;BME280;25393;46.108;3.390;2022-12-18T09:21:38;98699.28;;;0.17;77.93
36502;BME280;25393;46.108;3.390;2022-12-18T09:24:13;98704.63;;;0.29;78.62
36502;BME280;25393;46.108;3.390;2022-12-18T09:26:39;98697.69;;;0.14;78.84
36502;BME280;25393;46.108;3.390;2022-12-18T09:29:08;98706.09;;;0.19;80.63
36502;BME280;25393;46.108;3.390;2022-12-18T09:31:36;98692.28;;;0.47;81.58
36502;BME280;25393;46.108;3.390;2022-12-18T09:34:02;98697.41;;;0.48;80.44
36502;BME280;25393;46.108;3.390;2022-12-18T09:36:29;98702.66;;;0.63;81.33
36502;BME280;25393;46.108;3.390;2022-12-18T09:38:56;98705.72;;;0.55;81.84
36502;BME280;25393;46.108;3.390;2022-12-18T09:41:28;98700.25;;;0.74;81.45
36502;BME280;25393;46.108;3.390;2022-12-18T09:44:14;98689.53;;;0.92;82.31
36502;BME280;25393;46.108;3.390;2022-12-18T09:46:46;98688.47;;;1.23;82.26
36502;BME280;25393;46.108;3.390;2022-12-18T09:49:18;98691.53;;;1.44;80.45
36502;BME280;25393;46.108;3.390;2022-12-18T09:52:20;98676.16;;;1.39;80.96
36502;BME280;25393;46.108;3.390;2022-12-18T09:54:51;98687.53;;;1.38;81.61
36502;BME280;25393;46.108;3.390;2022-12-18T09:57:22;98694.97;;;1.44;82.29
36502;BME280;25393;46.108;3.390;2022-12-18T10:00:15;98691.16;;;1.77;83.87
36502;BME280;25393;46.108;3.390;2022-12-18T10:02:42;98682.28;;;2.06;81.69
36502;BME280;25393;46.108;3.390;2022-12-18T10:05:15;98682.75;;;2.50;80.29
36502;BME280;25393;46.108;3.390;2022-12-18T10:10:48;98668.19;;;3.59;77.60
36502;BME280;25393;46.108;3.390;2022-12-18T10:13:30;98656.25;;;4.02;73.71
36502;BME280;25393;46.108;3.390;2022-12-18T10:16:37;98645.97;;;4.34;73.23
36502;BME280;25393;46.108;3.390;2022-12-18T10:19:24;98640.34;;;4.95;70.83
36502;BME280;25393;46.108;3.390;2022-12-18T10:22:15;98636.84;;;5.39;69.11
36502;BME280;25393;46.108;3.390;2022-12-18T10:27:35;98633.41;;;6.14;68.13
36502;BME280;25393;46.108;3.390;2022-12-18T10:30:12;98621.09;;;6.14;65.56
36502;BME280;25393;46.108;3.390;2022-12-18T10:32:39;98624.56;;;6.56;63.03
36502;BME280;25393;46.108;3.390;2022-12-18T10:35:36;98637.31;;;6.81;61.64
36502;BME280;25393;46.108;3.390;2022-12-18T10:40:56;98623.38;;;7.30;60.95
36502;BME280;25393;46.108;3.390;2022-12-18T10:43:29;98623.84;;;7.54;59.30
36502;BME280;25393;46.108;3.390;2022-12-18T10:46:15;98613.47;;;7.82;59.36
36502;BME280;25393;46.108;3.390;2022-12-18T10:48:57;98610.72;;;8.12;57.55
36502;BME280;25393;46.108;3.390;2022-12-18T10:51:34;98613.06;;;8.25;57.44
36502;BME280;25393;46.108;3.390;2022-12-18T10:54:15;98610.13;;;8.57;56.80
36502;BME280;25393;46.108;3.390;2022-12-18T10:56:43;98606.19;;;8.70;56.65
36502;BME280;25393;46.108;3.390;2022-12-18T10:59:14;98603.97;;;8.75;55.19
36502;BME280;25393;46.108;3.390;2022-12-18T11:01:55;98597.88;;;9.02;54.04
36502;BME280;25393;46.108;3.390;2022-12-18T11:04:31;98595.47;;;9.18;53.76
36502;BME280;25393;46.108;3.390;2022-12-18T11:07:01;98599.06;;;9.17;52.44
36502;BME280;25393;46.108;3.390;2022-12-18T11:09:38;98608.69;;;9.18;53.98
36502;BME280;25393;46.108;3.390;2022-12-18T11:12:15;98611.63;;;9.42;53.86
36502;BME280;25393;46.108;3.390;2022-12-18T11:14:46;98601.34;;;9.57;53.42
36502;BME280;25393;46.108;3.390;2022-12-18T11:17:24;98606.97;;;9.72;54.27
36502;BME280;25393;46.108;3.390;2022-12-18T11:19:58;98600.09;;;9.96;54.36
36502;BME280;25393;46.108;3.390;2022-12-18T11:22:29;98602.47;;;10.17;53.40
36502;BME280;25393;46.108;3.390;2022-12-18T11:31:28;98594.09;;;10.99;51.29
36502;BME280;25393;46.108;3.390;2022-12-18T11:33:59;98587.84;;;11.08;51.65
36502;BME280;25393;46.108;3.390;2022-12-18T11:36:48;98572.03;;;11.40;50.07
36502;BME280;25393;46.108;3.390;2022-12-18T11:39:24;98576.59;;;11.64;49.60
36502;BME280;25393;46.108;3.390;2022-12-18T11:42:18;98578.75;;;11.61;49.83
36502;BME280;25393;46.108;3.390;2022-12-18T11:47:57;98563.22;;;11.90;50.36
36502;BME280;25393;46.108;3.390;2022-12-18T11:50:47;98566.53;;;12.00;51.46
36502;BME280;25393;46.108;3.390;2022-12-18T11:53:15;98552.09;;;11.94;51.24
36502;BME280;25393;46.108;3.390;2022-12-18T11:55:54;98557.91;;;11.98;52.90
36502;BME280;25393;46.108;3.390;2022-12-18T12:07:24;98548.50;;;10.70;56.12
36502;BME280;25393;46.108;3.390;2022-12-18T12:10:28;98545.47;;;10.13;59.55
36502;BME280;25393;46.108;3.390;2022-12-18T12:13:14;98543.38;;;9.64;59.76
36502;BME280;25393;46.108;3.390;2022-12-18T12:26:28;98526.97;;;9.60;63.38
36502;BME280;25393;46.108;3.390;2022-12-18T12:32:07;98520.34;;;9.64;65.49
36502;BME280;25393;46.108;3.390;2022-12-18T12:35:06;98520.31;;;9.74;65.41
36502;BME280;25393;46.108;3.390;2022-12-18T12:40:25;98511.81;;;10.31;63.12
36502;BME280;25393;46.108;3.390;2022-12-18T12:43:35;98508.66;;;10.87;57.86
36502;BME280;25393;46.108;3.390;2022-12-18T12:46:13;98493.88;;;11.27;54.92
36502;BME280;25393;46.108;3.390;2022-12-18T12:48:45;98496.94;;;11.64;53.84
36502;BME280;25393;46.108;3.390;2022-12-18T12:51:34;98490.47;;;12.07;52.25
36502;BME280;25393;46.108;3.390;2022-12-18T12:54:08;98501.75;;;12.33;50.22
36502;BME280;25393;46.108;3.390;2022-12-18T12:56:59;98503.81;;;12.70;50.13
36502;BME280;25393;46.108;3.390;2022-12-18T12:59:37;98508.84;;;12.49;50.02
36502;BME280;25393;46.108;3.390;2022-12-18T13:08:03;98512.75;;;11.74;52.08
36502;BME280;25393;46.108;3.390;2022-12-18T13:10:37;98511.19;;;11.55;51.81
36502;BME280;25393;46.108;3.390;2022-12-18T13:16:04;98508.66;;;11.37;52.18
36502;BME280;25393;46.108;3.390;2022-12-18T13:18:32;98492.75;;;11.45;52.70
36502;BME280;25393;46.108;3.390;2022-12-18T13:23:36;98488.97;;;11.64;52.88
36502;BME280;25393;46.108;3.390;2022-12-18T13:31:13;98480.78;;;12.63;49.90
36502;BME280;25393;46.108;3.390;2022-12-18T13:33:45;98474.53;;;12.78;49.93
36502;BME280;25393;46.108;3.390;2022-12-18T13:36:38;98483.41;;;13.10;49.36
36502;BME280;25393;46.108;3.390;2022-12-18T13:44:59;98482.06;;;12.67;51.08
36502;BME280;25393;46.108;3.390;2022-12-18T13:47:36;98479.19;;;12.21;51.38
36502;BME280;25393;46.108;3.390;2022-12-18T13:50:21;98471.75;;;11.84;51.99
36502;BME280;25393;46.108;3.390;2022-12-18T13:52:50;98473.69;;;11.58;53.62
36502;BME280;25393;46.108;3.390;2022-12-18T13:55:19;98484.78;;;11.37;54.02
36502;BME280;25393;46.108;3.390;2022-12-18T13:57:47;98484.41;;;11.24;54.70
36502;BME280;25393;46.108;3.390;2022-12-18T14:02:46;98491.44;;;10.83;55.87
36502;BME280;25393;46.108;3.390;2022-12-18T14:05:28;98500.81;;;10.78;56.71
36502;BME280;25393;46.108;3.390;2022-12-18T14:08:13;98495.19;;;10.73;56.77
36502;BME280;25393;46.108;3.390;2022-12-18T14:10:46;98494.44;;;10.55;57.18
36502;BME280;25393;46.108;3.390;2022-12-18T14:13:21;98486.22;;;10.40;57.20
36502;BME280;25393;46.108;3.390;2022-12-18T14:15:50;98502.25;;;10.13;58.30
36502;BME280;25393;46.108;3.390;2022-12-18T14:18:22;98499.78;;;9.93;58.94
36502;BME280;25393;46.108;3.390;2022-12-18T14:20:54;98492.47;;;9.70;59.63
36502;BME280;25393;46.108;3.390;2022-12-18T14:23:37;98501.03;;;9.81;59.93
36502;BME280;25393;46.108;3.390;2022-12-18T14:28:47;98506.22;;;9.73;60.56
36502;BME280;25393;46.108;3.390;2022-12-18T14:31:22;98513.03;;;9.76;61.52
36502;BME280;25393;46.108;3.390;2022-12-18T14:33:51;98511.59;;;9.81;61.16
36502;BME280;25393;46.108;3.390;2022-12-18T14:36:20;98508.50;;;9.68;61.94
36502;BME280;25393;46.108;3.390;2022-12-18T14:38:54;98522.13;;;9.73;62.71
36502;BME280;25393;46.108;3.390;2022-12-18T14:41:22;98534.91;;;9.60;63.07
36502;BME280;25393;46.108;3.390;2022-12-18T14:43:51;98533.22;;;9.59;63.37
36502;BME280;25393;46.108;3.390;2022-12-18T14:46:35;98517.50;;;9.75;62.43
36502;BME280;25393;46.108;3.390;2022-12-18T14:49:33;98525.81;;;9.80;62.27
36502;BME280;25393;46.108;3.390;2022-12-18T14:52:05;98534.44;;;9.82;62.81